Aktualne dane pomiarowe

Uwaga, wersja testowa! Automatyczne pobieranie danych za pomocą narzędzi lub skryptów to umożliwiających jest zabronione.

Dane meteo z obszaru Polski uzyskane na podstawie depesz SYNOP pobieranych co godzinę z NWS. Najedź myszką na symbol przedstawiony w tabeli, aby uzyskać informacje co do jego znaczenia. Prosimy pamiętać, że to testowa wersja strony, która jeszcze nie jest ukończona. Stworzono również jest krótki FAQ dotyczący korzystania z tej podstrony Anomalie temperatury w chwili obecnej odniesione są do okresu referencyjnego 1951-2016. Okres ten będzie później zmieniony na 1981-2010. Kliknij ikonę aby pobrać plik CSV. Kliknij ikonę aby wygenerować mapę synoptyczną dla danego terminu.

Wybierz Datę:    

        

Częstochowa (12550)

Dane terminowe dla wybranej stacji. Kliknij datę, aby otrzymać dane z tego terminu dla wszystkich stacji.

TemperaturaZachmurzenieWiatrCiśnienieOpadyPogoda
 Data t td wb tx tn tg rh  Nt Nl Cl Cm Ch ws wd g1 g2 wx mslp ppp ch 24h 12h t ww ww w1 w2  
2019-06-19 23:00:00 19.9 16.1 17.3--- 7917.0--2wx---1010.6 976.4 -0.7---------
2019-06-19 22:00:00 20.2 15.4 17.0--- 7417.0--1wx---1011.0 976.8 -0.2---------
2019-06-19 21:00:00 21.8 15.4 17.6--- 6722.0--1wx--11011.3 977.3 0.6---------
2019-06-19 20:00:00 22.6 15.7 18.0--- 6521.0--1wx--11011.0 977.1 0.7---------
2019-06-19 19:00:00 24.0 15.8 18.6--- 6026.0--2wx--21010.8 977.0 0.4---------
2019-06-19 18:00:00 25.8 15.2 19.0 29.4 21.5- 5230.0--2wx--21010.2 976.7 0.1--12------
2019-06-19 17:00:00 26.5 13.3 18.3--- 4435.0--1wx--11009.8 976.4 -0.7---wx-----
2019-06-19 16:00:00 27.6 15.3 19.8--- 4723.0--3wx--31009.9 976.6 -1.0---------
2019-06-19 15:00:00 28.8 16.0 20.6--- 4628.0--2wx---1009.8 976.6 -1.4---------
2019-06-19 14:00:00 28.7 13.4 19.2--- 3925.0--2wx--21010.3 977.1 -1.5---------
2019-06-19 13:00:00 28.9 13.9 19.5--- 4030.0--2wx--21010.8 977.6 -1.4---------
2019-06-19 12:00:00 29.0 14.0 19.6--- 4024.0--2wx--21011.2 978.0 -1.4--6------
2019-06-19 11:00:00 27.2 14.9 19.4--- 4721.0--2wx--21012.0 978.6 -1.2---wx-----
2019-06-19 10:00:00 27.0 16.3 20.0--- 5227.0--2wx--21012.5 979.0 -1.0---------
2019-06-19 09:00:00 26.4 16.9 20.1--- 5620.0--1wx--11013.0 979.4 -0.9---------
2019-06-19 08:00:00 24.7 17.2 19.7--- 6316.0--1wx---1013.6 979.8 -0.4---------
2019-06-19 07:00:00 22.9 17.4 19.1--- 7113.0--1wx--11014.0 980.0 -0.3---------
2019-06-19 06:00:00 21.6 16.8 18.3 22.8 16.9 16 7412.0--2wx--21014.5 980.3 -0.1- 0.012----- 9.5
2019-06-19 05:00:00 19.6 16.2 17.2--- 8111.0--1wx--11014.6 980.2 -0.5---------
2019-06-19 04:00:00 18.2 15.4 16.2--- 8413.0--1wx--11014.9 980.3 -0.6---------
2019-06-19 03:00:00 16.9 14.7 15.4--- 8712.0--1wx---1015.1 980.4 -1.0---------
2019-06-19 02:00:00 17.3 14.9 15.6--- 8614.0--2wx--21015.4 980.7 -1.1---------
2019-06-19 01:00:00 17.6 14.9 15.7--- 8416.0--2wx--21015.5 980.9 -1.3---------
2019-06-19 00:00:00 18.1 14.6 15.7--- 8021.0--1wx--11016.0 981.4 -1.3- 0.06------
2019-06-18 23:00:00 19.0 14.7 16.1--- 7630.0--2wx--21016.3 981.8 -0.9---------
2019-06-18 22:00:00 19.7 14.7 16.4--- 7330.0--2wx---1016.6 982.2 -0.3---------
2019-06-18 21:00:00 20.5 14.8 16.7--- 7027.0--1wx--11017.1 982.7 0.2---------
2019-06-18 20:00:00 21.0 14.6 16.8--- 6730.0--1wx--11017.0 982.7 0.2---------
2019-06-18 19:00:00 22.0 14.4 17.1--- 6235.0--2wx--21016.7 982.5 -0.2---------
2019-06-18 18:00:00 22.8 14.1 17.3 25.7 18.9- 5840.0--2wx-721016.6 982.5 -0.5- 0.012------
2019-06-18 17:00:00 23.7 14.1 17.6--- 5535.0--2wx---1016.5 982.5 -0.9---------
2019-06-18 16:00:00 24.4 13.3 17.5--- 5030.0--2wx--21016.6 982.7 -1.2---------
2019-06-18 15:00:00 24.7 12.6 17.3--- 4729.0--3wx---1016.9 983.0 -1.4---------
2019-06-18 14:00:00 25.1 12.0 17.1--- 4435.0--2wx-721017.2 983.4 -1.5---------
2019-06-18 13:00:00 24.6 11.5 16.7--- 4445.0--2wx--21017.8 983.9 -1.4---------
2019-06-18 12:00:00 24.5 12.1 16.9--- 4630.0--4wx--41018.4 984.4 -1.2- 0.06------
2019-06-18 11:00:00 23.6 12.6 16.8--- 5030.0--3wx--31019.0 984.9 -0.9---------
2019-06-18 10:00:00 22.6 13.6 16.9--- 5740.0--3wx--31019.5 985.3 -0.8---------
2019-06-18 09:00:00 22.0 12.8 16.3--- 5626.0--3wx--31019.9 985.6 -0.6---------
2019-06-18 08:00:00 21.4 13.1 16.2--- 5929.0--3wx--31020.2 985.8 -0.4---------
2019-06-18 07:00:00 21.1 13.5 16.2--- 6227.0--2wx---1020.5 986.1 0.1---------
2019-06-18 06:00:00 19.0 14.0 15.7 22.5 15.0 14 7323.0--2wx--21020.9 986.2 0.1- 0.012----- 13.2
2019-06-18 05:00:00 16.8 12.9 14.2--- 7830.0--2wx--21021.1 986.2 0.2---------
2019-06-18 04:00:00 15.8 12.5 13.6--- 8135.0--2wx--21021.1 986.0 0.0---------
2019-06-18 03:00:00 15.0 12.1 13.0--- 8327.0--2wx--21021.3 986.1 -0.2---------
2019-06-18 02:00:00 15.3 12.1 13.2--- 8130.0--2wx---1021.1 986.0 -0.7---------
2019-06-18 01:00:00 15.8 12.0 13.3--- 7835.0--2wx---1021.1 986.0 -0.6---------
2019-06-18 00:00:00 16.6 12.1 13.7--- 7540.0--2wx--21021.3 986.3 -0.2- 0.06------
1.7 ms

 

Print Friendly, PDF & Email